Time;durP1;ratioP1;P1;durP2;ratioP2;P2;SDS_P1;SDS_P2;PMS_P1;PMS_P2;Temp;Humidity;BMP_temperature;BMP_pressure;BME280_temperature;BME280_humidity;BME280_pressure;Samples;Min_cycle;Max_cycle;Signal;HPM_P1;HPM_P2
2022/02/24 00:01:10;;;;;;;48.30;31.80;;;;;;;0.70;100.00;101433.09;1649042;85;21201;-81
2022/02/24 00:03:39;;;;;;;56.88;34.85;;;;;;;0.58;100.00;101434.19;1653233;85;21126;-81
2022/02/24 00:06:06;;;;;;;53.50;34.90;;;;;;;0.41;100.00;101435.36;1615596;86;21283;-78
2022/02/24 00:08:34;;;;;;;58.23;36.98;;;;;;;0.23;100.00;101434.00;1643313;86;21052;-79
2022/02/24 00:11:00;;;;;;;58.20;36.68;;;;;;;0.04;100.00;101432.67;1636861;86;21165;-79
2022/02/24 00:13:29;;;;;;;54.03;33.83;;;;;;;-0.14;100.00;101429.98;1627096;86;21069;-79
2022/02/24 00:15:56;;;;;;;48.40;32.90;;;;;;;-0.26;100.00;101429.75;1685651;83;21006;-79
2022/02/24 00:18:23;;;;;;;47.88;32.17;;;;;;;-0.36;100.00;101435.02;1702557;83;21495;-80
2022/02/24 00:20:50;;;;;;;49.45;31.33;;;;;;;-0.46;100.00;101434.78;1697230;83;21845;-79
2022/02/24 00:23:17;;;;;;;44.48;30.72;;;;;;;-0.54;100.00;101434.89;1674489;83;21793;-79
2022/02/24 00:25:44;;;;;;;47.23;31.35;;;;;;;-0.62;100.00;101435.89;1689135;84;21567;-79
2022/02/24 00:28:11;;;;;;;54.60;33.60;;;;;;;-0.73;100.00;101435.60;1702743;84;21070;-80
2022/02/24 00:30:38;;;;;;;60.43;35.70;;;;;;;-0.84;100.00;101439.60;1687395;84;21132;-79
2022/02/24 00:33:05;;;;;;;56.68;34.67;;;;;;;-0.91;100.00;101435.86;1683363;84;21073;-79
2022/02/24 00:35:32;;;;;;;58.70;36.00;;;;;;;-0.93;100.00;101446.56;1686928;83;21964;-79
2022/02/24 00:37:59;;;;;;;62.17;35.70;;;;;;;-0.94;100.00;101448.70;1681036;83;21615;-79
2022/02/24 00:40:27;;;;;;;52.53;34.35;;;;;;;-0.94;100.00;101452.55;1688363;82;21057;-80
2022/02/24 00:42:53;;;;;;;54.85;35.80;;;;;;;-0.93;100.00;101451.68;1690673;83;21694;-80
2022/02/24 00:45:21;;;;;;;57.15;35.05;;;;;;;-0.98;100.00;101444.07;1686932;83;21124;-80
2022/02/24 00:47:49;;;;;;;60.55;35.90;;;;;;;-0.98;100.00;101449.18;1687596;83;21164;-80
2022/02/24 00:50:17;;;;;;;67.32;39.60;;;;;;;-0.97;100.00;101452.98;1684518;83;21120;-79
2022/02/24 00:52:44;;;;;;;70.67;40.73;;;;;;;-0.94;100.00;101450.81;1691924;83;21160;-80
2022/02/24 00:55:11;;;;;;;66.60;39.63;;;;;;;-1.00;100.00;101451.73;1685732;83;21482;-80
2022/02/24 00:57:38;;;;;;;65.95;39.50;;;;;;;-1.11;100.00;101455.72;1692736;83;21460;-79
2022/02/24 01:00:08;;;;;;;63.95;39.18;;;;;;;-1.21;100.00;101459.70;1682959;83;21878;-79
2022/02/24 01:02:36;;;;;;;60.80;39.48;;;;;;;-1.30;100.00;101459.39;1656531;84;21065;-80
2022/02/24 01:05:03;;;;;;;59.93;39.45;;;;;;;-1.33;100.00;101461.97;1682673;84;21101;-80
2022/02/24 01:07:31;;;;;;;64.47;41.88;;;;;;;-1.34;100.00;101463.69;1621385;86;21071;-81
2022/02/24 01:09:58;;;;;;;66.57;40.30;;;;;;;-1.37;100.00;101464.16;1621319;86;21069;-80
2022/02/24 01:12:25;;;;;;;63.58;40.20;;;;;;;-1.46;100.00;101468.52;1636561;86;21217;-81
2022/02/24 01:14:52;;;;;;;65.28;39.45;;;;;;;-1.46;100.00;101472.76;1636622;85;21668;-79
2022/02/24 01:17:20;;;;;;;60.55;38.73;;;;;;;-1.48;100.00;101469.37;1612030;86;21098;-80
2022/02/24 01:19:48;;;;;;;61.28;38.98;;;;;;;-1.53;100.00;101472.41;1639227;86;21123;-79
2022/02/24 01:22:16;;;;;;;55.15;36.75;;;;;;;-1.54;100.00;101475.83;1655964;85;21113;-79
2022/02/24 01:24:43;;;;;;;55.25;36.83;;;;;;;-1.52;100.00;101473.67;1653963;86;21171;-80
2022/02/24 01:27:10;;;;;;;54.45;36.60;;;;;;;-1.47;100.00;101465.95;1623891;86;21068;-80
2022/02/24 01:29:38;;;;;;;52.08;35.75;;;;;;;-1.38;100.00;101469.69;1632064;86;21709;-80
2022/02/24 01:32:05;;;;;;;67.20;42.27;;;;;;;-1.29;100.00;101466.20;1640125;86;21098;-81
2022/02/24 01:34:33;;;;;;;68.22;43.05;;;;;;;-1.19;100.00;101467.75;1632694;86;21076;-79
2022/02/24 01:37:00;;;;;;;67.75;40.60;;;;;;;-1.12;100.00;101465.97;1639293;86;21882;-80
2022/02/24 01:39:27;;;;;;;65.35;39.50;;;;;;;-1.07;100.00;101465.92;1639281;85;21035;-80
2022/02/24 01:41:55;;;;;;;62.40;39.03;;;;;;;-1.04;100.00;101466.72;1629056;86;21002;-80
2022/02/24 01:44:23;;;;;;;60.03;38.08;;;;;;;-1.02;100.00;101466.28;1631310;86;21133;-80
2022/02/24 01:46:50;;;;;;;61.60;38.83;;;;;;;-1.04;100.00;101467.17;1607832;87;21220;-79
2022/02/24 01:49:20;;;;;;;57.13;37.33;;;;;;;-1.04;100.00;101469.73;1624682;86;21477;-80
2022/02/24 01:51:48;;;;;;;50.70;34.65;;;;;;;-1.07;100.00;101475.70;1612266;86;21096;-81
2022/02/24 01:54:15;;;;;;;51.13;32.53;;;;;;;-1.07;100.00;101478.25;1632369;86;21155;-81
2022/02/24 01:56:42;;;;;;;48.52;31.30;;;;;;;-1.07;100.00;101479.98;1637642;86;21078;-80
2022/02/24 01:59:09;;;;;;;43.13;29.57;;;;;;;-1.05;100.00;101476.98;1634502;86;21188;-78
2022/02/24 02:01:36;;;;;;;54.20;33.33;;;;;;;-1.01;100.00;101483.73;1617345;86;21918;-80
2022/02/24 02:04:04;;;;;;;52.58;34.98;;;;;;;-0.99;100.00;101483.28;1638251;86;21559;-80
2022/02/24 02:15:10;;;;;;;56.48;31.87;;;;;;;-0.86;100.00;101496.31;1795498;79;23589;-80
2022/02/24 02:17:38;;;;;;;49.00;28.77;;;;;;;-0.90;100.00;101504.04;1756053;81;21005;-80
2022/02/24 02:20:06;;;;;;;58.00;28.32;;;;;;;-0.84;100.00;101506.09;1756255;81;21646;-80
2022/02/24 02:22:33;;;;;;;51.37;28.70;;;;;;;-0.73;100.00;101511.06;1755857;81;21026;-80
2022/02/24 02:25:03;;;;;;;50.73;29.98;;;;;;;-0.58;100.00;101507.87;1756479;81;21042;-81
2022/02/24 02:27:31;;;;;;;46.67;30.77;;;;;;;-0.45;100.00;101515.80;1756048;81;21555;-81
2022/02/24 02:29:58;;;;;;;45.38;30.27;;;;;;;-0.40;100.00;101520.41;1756039;81;21098;-81
2022/02/24 02:32:27;;;;;;;50.67;32.63;;;;;;;-0.42;100.00;101514.46;1737105;81;21162;-82
2022/02/24 02:34:54;;;;;;;47.43;32.00;;;;;;;-0.48;100.00;101519.22;1756287;81;21015;-80
2022/02/24 02:37:21;;;;;;;49.50;32.25;;;;;;;-0.50;100.00;101520.12;1755897;80;21492;-79
2022/02/24 02:39:48;;;;;;;48.25;30.55;;;;;;;-0.52;100.00;101527.83;1756209;81;21041;-83
2022/02/24 02:42:15;;;;;;;52.03;33.92;;;;;;;-0.54;100.00;101527.45;1756101;81;21049;-81
2022/02/24 02:44:42;;;;;;;51.05;32.30;;;;;;;-0.57;100.00;101528.75;1756280;80;21126;-81
2022/02/24 02:47:11;;;;;;;47.65;31.27;;;;;;;-0.61;100.00;101532.23;1756009;81;21054;-80
2022/02/24 02:49:40;;;;;;;45.88;30.62;;;;;;;-0.64;100.00;101535.24;1724084;81;25655;-81
2022/02/24 02:52:08;;;;;;;43.30;29.92;;;;;;;-0.66;100.00;101539.97;1756180;81;21070;-82
2022/02/24 02:54:35;;;;;;;49.45;31.70;;;;;;;-0.71;100.00;101541.31;1756153;81;21054;-78
2022/02/24 02:57:03;;;;;;;48.30;31.93;;;;;;;-0.75;100.00;101548.59;1754842;80;21807;-80
2022/02/24 02:59:31;;;;;;;46.55;31.95;;;;;;;-0.76;100.00;101546.06;1755718;81;21065;-80
2022/02/24 03:01:58;;;;;;;46.90;32.65;;;;;;;-0.81;100.00;101544.43;1755760;81;21522;-80
2022/02/24 03:04:25;;;;;;;43.35;29.90;;;;;;;-0.87;100.00;101543.66;1754423;81;21051;-82
2022/02/24 03:06:55;;;;;;;49.85;30.85;;;;;;;-0.90;100.00;101548.37;1724809;81;21062;-79
2022/02/24 03:09:22;;;;;;;45.12;30.65;;;;;;;-0.93;100.00;101555.24;1754353;81;21825;-79
2022/02/24 03:11:50;;;;;;;47.08;30.48;;;;;;;-0.94;100.00;101551.82;1754552;81;21549;-80
2022/02/24 03:14:18;;;;;;;52.88;31.73;;;;;;;-0.93;100.00;101551.41;1732766;81;21042;-81
2022/02/24 03:16:45;;;;;;;52.75;30.35;;;;;;;-0.94;100.00;101546.70;1731759;81;21701;-79
2022/02/24 03:19:12;;;;;;;47.30;30.43;;;;;;;-0.93;100.00;101553.97;1749714;80;21002;-79
2022/02/24 03:21:39;;;;;;;48.15;30.65;;;;;;;-0.95;100.00;101553.96;1756480;80;21134;-80
2022/02/24 03:24:07;;;;;;;45.65;31.00;;;;;;;-0.93;100.00;101552.69;1753652;81;21033;-79
2022/02/24 03:26:35;;;;;;;45.30;28.62;;;;;;;-0.94;100.00;101549.71;1752221;81;21011;-80
2022/02/24 03:29:02;;;;;;;44.18;30.12;;;;;;;-0.96;100.00;101549.70;1741765;81;20967;-80
2022/02/24 03:31:29;;;;;;;44.50;29.52;;;;;;;-1.01;100.00;101551.07;1725868;82;21049;-80
2022/02/24 03:33:57;;;;;;;42.20;28.95;;;;;;;-1.05;100.00;101554.51;1726134;83;21133;-80
2022/02/24 03:36:25;;;;;;;42.40;29.23;;;;;;;-1.08;100.00;101553.70;1728138;80;21143;-80
2022/02/24 03:38:52;;;;;;;42.83;28.65;;;;;;;-1.08;100.00;101556.25;1745488;80;21262;-80
2022/02/24 03:41:20;;;;;;;42.53;29.40;;;;;;;-1.07;100.00;101552.39;1750257;81;21812;-80
2022/02/24 03:43:47;;;;;;;45.17;28.83;;;;;;;-1.08;100.00;101557.09;1740779;81;21532;-80
2022/02/24 03:46:14;;;;;;;48.83;32.63;;;;;;;-1.09;100.00;101555.42;1745440;80;21093;-80
2022/02/24 03:48:45;;;;;;;49.98;32.35;;;;;;;-1.12;100.00;101553.72;1755441;80;21054;-80
2022/02/24 03:51:12;;;;;;;47.80;31.25;;;;;;;-1.16;100.00;101562.30;1738265;81;21101;-80
2022/02/24 03:53:39;;;;;;;53.10;31.75;;;;;;;-1.21;100.00;101561.52;1754709;81;21540;-80
2022/02/24 03:56:07;;;;;;;44.77;29.48;;;;;;;-1.25;100.00;101565.41;1755534;81;21535;-80
2022/02/24 03:58:34;;;;;;;41.60;28.77;;;;;;;-1.27;100.00;101576.89;1738370;81;21086;-79
2022/02/24 04:01:02;;;;;;;44.60;28.73;;;;;;;-1.30;100.00;101572.66;1755473;81;21003;-79
2022/02/24 04:03:29;;;;;;;57.70;28.67;;;;;;;-1.32;100.00;101575.66;1750928;81;21038;-79
2022/02/24 04:05:56;;;;;;;86.57;31.23;;;;;;;-1.25;100.00;101574.34;1736929;81;21631;-80
2022/02/24 04:08:23;;;;;;;59.58;30.30;;;;;;;-1.06;100.00;101578.38;1755151;81;21456;-80
2022/02/24 04:10:50;;;;;;;72.50;32.45;;;;;;;-0.85;100.00;101582.84;1755782;81;21814;-79
2022/02/24 04:13:19;;;;;;;73.85;34.20;;;;;;;-0.22;100.00;101579.44;1753215;81;21113;-83
2022/02/24 04:15:47;;;;;;;82.30;37.05;;;;;;;0.85;100.00;101580.22;1722203;81;21184;-83
2022/02/24 04:18:14;;;;;;;70.92;37.70;;;;;;;1.76;100.00;101577.48;1712249;82;21034;-81
2022/02/24 04:20:43;;;;;;;75.70;39.98;;;;;;;2.38;100.00;101582.43;1741846;81;21526;-80
2022/02/24 04:23:10;;;;;;;71.45;38.60;;;;;;;2.76;100.00;101592.61;1742395;81;21133;-81
2022/02/24 04:25:37;;;;;;;84.00;36.60;;;;;;;2.95;100.00;101595.52;1724865;82;21093;-81
2022/02/24 04:28:05;;;;;;;71.80;33.15;;;;;;;2.78;100.00;101601.97;1713451;82;21014;-81
2022/02/24 04:30:32;;;;;;;76.20;31.57;;;;;;;2.07;100.00;101605.48;1742103;82;21022;-81
2022/02/24 04:32:59;;;;;;;58.13;31.25;;;;;;;2.07;100.00;101605.48;1742874;80;21007;-81
2022/02/24 04:35:26;;;;;;;57.70;30.05;;;;;;;1.70;100.00;101618.72;1742451;81;21825;-81
2022/02/24 04:37:53;;;;;;;54.55;30.72;;;;;;;1.38;100.00;101615.95;1742769;81;20992;-79
2022/02/24 04:40:20;;;;;;;59.03;29.37;;;;;;;1.14;100.00;101618.59;1735868;80;21670;-80
2022/02/24 04:42:48;;;;;;;52.03;29.72;;;;;;;0.92;100.00;101613.02;1728522;82;21066;-82
2022/02/24 04:45:15;;;;;;;58.23;31.30;;;;;;;0.75;100.00;101615.90;1712678;82;21082;-82
2022/02/24 04:47:42;;;;;;;62.55;29.07;;;;;;;0.59;100.00;101619.16;1720709;82;21141;-81
2022/02/24 04:50:10;;;;;;;56.70;29.60;;;;;;;0.48;100.00;101628.77;1738597;82;21442;-81
2022/02/24 04:52:38;;;;;;;47.62;27.75;;;;;;;0.34;100.00;101630.27;1742180;81;21046;-80
2022/02/24 04:55:07;;;;;;;46.45;29.32;;;;;;;0.15;100.00;101636.95;1733793;81;20992;-81
2022/02/24 04:57:35;;;;;;;45.70;29.95;;;;;;;-0.01;100.00;101638.91;1701667;81;21009;-82
2022/02/24 05:00:06;;;;;;;42.93;27.70;;;;;;;-0.22;100.00;101638.32;1723087;81;21044;-80
2022/02/24 05:02:34;;;;;;;43.58;27.13;;;;;;;-0.52;100.00;101641.70;1736241;80;21094;-80
2022/02/24 05:05:01;;;;;;;45.80;28.67;;;;;;;-0.71;100.00;101642.77;1737410;80;21011;-80
2022/02/24 05:07:29;;;;;;;48.08;29.42;;;;;;;-0.76;100.00;101647.11;1730672;82;21106;-80
2022/02/24 05:09:57;;;;;;;53.25;32.75;;;;;;;-0.78;100.00;101649.69;1741273;80;21509;-81
2022/02/24 05:12:27;;;;;;;52.15;37.90;;;;;;;-0.81;100.00;101653.13;1742199;81;21061;-81
2022/02/24 05:14:55;;;;;;;63.28;38.20;;;;;;;-0.80;100.00;101662.47;1743715;81;21097;-81
2022/02/24 05:17:22;;;;;;;53.50;35.78;;;;;;;-0.84;100.00;101667.22;1755443;80;21580;-82
2022/02/24 05:19:49;;;;;;;55.70;35.33;;;;;;;-0.83;100.00;101664.22;1755567;80;21108;-83
2022/02/24 05:22:17;;;;;;;48.15;33.28;;;;;;;-0.78;100.00;101673.13;1738892;81;21343;-80
2022/02/24 05:24:44;;;;;;;47.30;31.10;;;;;;;-0.76;100.00;101670.13;1755571;80;21145;-80
2022/02/24 05:27:11;;;;;;;49.75;31.15;;;;;;;-0.69;100.00;101673.89;1752151;81;21022;-80
2022/02/24 05:29:38;;;;;;;45.50;28.87;;;;;;;-0.58;100.00;101675.05;1729311;81;21638;-81
2022/02/24 05:32:06;;;;;;;44.98;30.82;;;;;;;-0.45;100.00;101675.75;1741655;81;21563;-82
2022/02/24 05:34:34;;;;;;;46.55;30.25;;;;;;;-0.36;100.00;101679.89;1740962;81;21551;-81
2022/02/24 05:37:01;;;;;;;43.83;31.68;;;;;;;-0.29;100.00;101673.83;1750747;81;21133;-80
2022/02/24 05:39:29;;;;;;;50.83;30.82;;;;;;;-0.21;100.00;101678.86;1755483;80;21531;-80
2022/02/24 05:41:56;;;;;;;48.00;29.48;;;;;;;-0.16;100.00;101677.08;1754756;81;21011;-81
2022/02/24 05:44:23;;;;;;;48.58;30.68;;;;;;;-0.09;100.00;101683.81;1738148;81;21049;-81
2022/02/24 05:46:50;;;;;;;44.18;30.25;;;;;;;0.03;100.00;101680.68;1754448;81;21037;-81
2022/02/24 05:49:17;;;;;;;52.95;31.25;;;;;;;0.11;100.00;101676.30;1747419;81;21825;-79
2022/02/24 05:51:45;;;;;;;45.23;31.10;;;;;;;0.16;100.00;101677.06;1746664;81;21061;-80
2022/02/24 05:54:12;;;;;;;55.23;32.90;;;;;;;0.22;100.00;101689.78;1734545;81;21113;-80
2022/02/24 05:56:39;;;;;;;48.05;33.25;;;;;;;0.29;100.00;101690.09;1755880;80;21527;-79
2022/02/24 05:59:06;;;;;;;50.98;34.08;;;;;;;0.37;100.00;101692.97;1755911;80;21010;-81
2022/02/24 06:01:33;;;;;;;55.78;36.30;;;;;;;0.39;100.00;101688.68;1730141;81;21751;-80
2022/02/24 06:04:01;;;;;;;48.98;33.63;;;;;;;0.43;100.00;101691.63;1725493;81;21514;-79
2022/02/24 06:06:29;;;;;;;45.35;31.57;;;;;;;0.42;100.00;101691.20;1725639;83;21054;-80
2022/02/24 06:08:58;;;;;;;52.88;33.38;;;;;;;0.38;100.00;101693.39;1725816;82;21042;-81
2022/02/24 06:11:25;;;;;;;46.42;33.18;;;;;;;0.36;100.00;101695.16;1729190;81;21602;-81
2022/02/24 06:13:53;;;;;;;51.40;33.98;;;;;;;0.37;100.00;101694.26;1733786;81;21230;-79
2022/02/24 06:16:20;;;;;;;45.50;32.13;;;;;;;0.40;100.00;101699.34;1747213;80;21140;-79
2022/02/24 06:18:47;;;;;;;50.50;33.55;;;;;;;0.48;100.00;101698.80;1742290;80;21074;-82
2022/02/24 06:21:16;;;;;;;54.70;32.23;;;;;;;0.56;100.00;101702.53;1735601;80;21117;-79
2022/02/24 06:23:46;;;;;;;49.33;29.57;;;;;;;0.61;100.00;101709.70;1733809;81;21113;-79
2022/02/24 06:26:13;;;;;;;36.10;26.62;;;;;;;0.67;100.00;101716.01;1727530;81;21154;-80
2022/02/24 06:28:40;;;;;;;35.20;25.20;;;;;;;0.69;100.00;101715.97;1741703;81;21046;-79
2022/02/24 06:31:08;;;;;;;40.30;27.90;;;;;;;0.67;100.00;101724.98;1740460;81;21011;-80
2022/02/24 06:33:35;;;;;;;41.33;27.52;;;;;;;0.66;100.00;101718.61;1722011;82;21113;-80
2022/02/24 06:36:03;;;;;;;41.37;26.17;;;;;;;0.63;100.00;101726.75;1725033;82;21034;-80
2022/02/24 06:38:30;;;;;;;35.23;25.50;;;;;;;0.61;100.00;101731.05;1741888;80;21137;-81
2022/02/24 06:40:58;;;;;;;37.85;26.50;;;;;;;0.68;100.00;101730.98;1733740;81;21082;-80
2022/02/24 06:43:25;;;;;;;32.88;24.98;;;;;;;0.73;100.00;101735.58;1741797;82;20975;-80
2022/02/24 06:45:52;;;;;;;34.85;24.87;;;;;;;0.80;100.00;101742.75;1713177;82;22223;-82
2022/02/24 06:48:21;;;;;;;35.38;23.98;;;;;;;0.86;100.00;101738.34;1741094;80;22079;-80
2022/02/24 06:50:49;;;;;;;35.35;24.32;;;;;;;0.92;100.00;101735.67;1742753;80;21120;-85
2022/02/24 06:53:16;;;;;;;33.13;23.47;;;;;;;0.98;100.00;101741.59;1730182;81;21062;-84
2022/02/24 06:55:43;;;;;;;28.80;21.42;;;;;;;1.02;100.00;101744.08;1733634;80;21543;-85
2022/02/24 06:58:10;;;;;;;29.98;21.37;;;;;;;1.06;100.00;101746.16;1730678;82;21494;-81
2022/02/24 07:00:38;;;;;;;29.63;21.95;;;;;;;1.13;100.00;101743.89;1732277;81;21105;-82
2022/02/24 07:03:05;;;;;;;37.10;23.15;;;;;;;1.18;100.00;101754.91;1715639;81;21151;-82
2022/02/24 07:05:33;;;;;;;32.75;22.02;;;;;;;1.24;100.00;101745.81;1736837;80;21101;-79
2022/02/24 07:08:02;;;;;;;27.87;20.12;;;;;;;1.31;100.00;101750.41;1712879;82;21007;-81
2022/02/24 07:10:34;;;;;;;29.63;19.62;;;;;;;1.40;100.00;101754.55;1713016;82;21090;-80
2022/02/24 07:13:03;;;;;;;29.80;20.75;;;;;;;1.51;100.00;101753.05;1742301;81;21413;-80
2022/02/24 07:15:30;;;;;;;29.25;19.17;;;;;;;1.58;100.00;101749.49;1712949;82;21485;-83
2022/02/24 07:17:58;;;;;;;31.12;19.98;;;;;;;1.67;100.00;101751.02;1712984;83;21467;-80
2022/02/24 07:20:26;;;;;;;28.73;18.98;;;;;;;1.76;100.00;101750.02;1702538;83;21581;-84
2022/02/24 07:22:54;;;;;;;25.40;17.80;;;;;;;1.87;100.00;101748.05;1740665;82;21059;-81
2022/02/24 07:25:21;;;;;;;23.80;16.70;;;;;;;1.98;100.00;101747.83;1742424;82;21058;-80
2022/02/24 07:27:49;;;;;;;22.82;16.35;;;;;;;2.09;100.00;101750.16;1735390;81;21119;-83
2022/02/24 07:30:16;;;;;;;21.60;15.43;;;;;;;2.18;100.00;101749.97;1726205;82;21094;-80
2022/02/24 07:32:44;;;;;;;22.07;15.63;;;;;;;2.29;100.00;101743.30;1740284;82;21042;-79
2022/02/24 07:35:11;;;;;;;22.45;16.25;;;;;;;2.52;100.00;101750.05;1742517;80;21050;-82
2022/02/24 07:37:39;;;;;;;23.30;16.05;;;;;;;2.62;100.00;101742.98;1742500;80;21054;-80
2022/02/24 07:40:07;;;;;;;22.65;14.80;;;;;;;2.77;100.00;101749.48;1739311;81;21137;-80
2022/02/24 07:42:35;;;;;;;19.52;15.72;;;;;;;2.77;100.00;101749.48;1736828;80;21078;-80
2022/02/24 07:45:07;;;;;;;22.17;14.63;;;;;;;2.98;100.00;101746.82;1735572;80;21092;-80
2022/02/24 07:47:34;;;;;;;17.92;14.28;;;;;;;2.98;100.00;101746.82;1741957;82;20996;-81
2022/02/24 07:50:01;;;;;;;18.57;14.30;;;;;;;3.16;100.00;101754.50;1736809;80;21113;-80
2022/02/24 07:52:29;;;;;;;38.90;26.42;;;;;;;3.16;100.00;101754.50;1736754;82;21225;-82
2022/02/24 07:54:56;;;;;;;101.65;52.23;;;;;;;3.25;100.00;101757.30;1735588;81;21060;-82
2022/02/24 07:57:23;;;;;;;100.05;49.18;;;;;;;3.30;100.00;101742.56;1742146;80;21009;-81
2022/02/24 07:59:50;;;;;;;13.08;10.43;;;;;;;3.39;100.00;101749.22;1726059;81;21113;-83
2022/02/24 08:02:18;;;;;;;12.82;9.25;;;;;;;3.51;100.00;101754.48;1739586;82;21077;-82
2022/02/24 08:04:45;;;;;;;19.20;10.23;;;;;;;3.60;100.00;101757.23;1696127;82;21129;-83
2022/02/24 08:07:12;;;;;;;17.62;8.88;;;;;;;3.71;100.00;101756.51;1729668;81;21026;-84
2022/02/24 08:09:40;;;;;;;10.93;8.55;;;;;;;3.94;100.00;101753.71;1698035;84;21073;-83
2022/02/24 08:14:53;;;;;;;11.68;9.18;;;;;;;4.26;100.00;101755.32;1699057;82;21084;-83
2022/02/24 08:17:20;;;;;;;13.05;9.30;;;;;;;4.35;100.00;101754.21;1700780;83;21120;-84
2022/02/24 08:19:48;;;;;;;14.60;9.05;;;;;;;4.44;100.00;101756.11;1741824;81;21107;-85
2022/02/24 08:22:16;;;;;;;10.63;8.70;;;;;;;4.52;100.00;101756.72;1742278;80;21065;-85
2022/02/24 08:24:43;;;;;;;13.75;9.80;;;;;;;4.57;100.00;101754.36;1727777;81;21040;-80
2022/02/24 08:27:10;;;;;;;14.05;9.98;;;;;;;4.60;100.00;101757.32;1729321;81;21089;-84
2022/02/24 08:29:38;;;;;;;16.57;9.20;;;;;;;4.60;100.00;101756.03;1700554;83;21168;-86
2022/02/24 08:32:05;;;;;;;13.68;9.43;;;;;;;4.60;100.00;101759.04;1699875;82;21058;-84
2022/02/24 08:34:35;;;;;;;13.13;9.68;;;;;;;4.62;100.00;101765.83;1741767;81;21038;-82
2022/02/24 08:37:04;;;;;;;15.05;10.10;;;;;;;4.68;100.00;101765.66;1684534;84;21085;-84
2022/02/24 08:39:34;;;;;;;19.37;10.28;;;;;;;4.72;100.00;101752.21;1734679;80;21110;-84
2022/02/24 08:42:01;;;;;;;11.22;8.35;;;;;;;4.80;100.00;101750.66;1735058;82;21127;-84
2022/02/24 08:44:28;;;;;;;10.68;8.43;;;;;;;4.91;100.00;101756.32;1699518;82;21814;-79
2022/02/24 08:46:56;;;;;;;12.37;8.43;;;;;;;4.97;100.00;101750.95;1732442;82;21042;-81
2022/02/24 08:49:23;;;;;;;11.38;7.53;;;;;;;4.98;100.00;101755.22;1692790;82;21615;-80
2022/02/24 08:51:50;;;;;;;10.03;7.10;;;;;;;5.03;100.00;101754.61;1712173;83;21528;-79
2022/02/24 08:54:18;;;;;;;10.28;8.00;;;;;;;5.13;100.00;101747.84;1684462;82;21826;-79
2022/02/24 08:56:45;;;;;;;12.43;7.90;;;;;;;5.21;100.00;101753.59;1724045;82;21023;-79
2022/02/24 08:59:13;;;;;;;13.45;7.87;;;;;;;5.31;100.00;101750.23;1695848;84;21527;-78
2022/02/24 09:01:41;;;;;;;11.35;7.15;;;;;;;5.34;100.00;101748.85;1739583;82;21074;-80
2022/02/24 09:04:08;;;;;;;10.60;6.80;;;;;;;5.34;100.00;101748.39;1705723;82;21053;-79
2022/02/24 09:06:36;;;;;;;8.53;6.17;;;;;;;5.36;100.00;101748.36;1730537;82;21107;-79
2022/02/24 09:09:03;;;;;;;7.30;5.40;;;;;;;5.43;100.00;101752.41;1705683;83;21495;-80
2022/02/24 09:11:32;;;;;;;9.00;6.37;;;;;;;5.50;100.00;101747.84;1732585;81;21807;-81
2022/02/24 09:13:59;;;;;;;10.50;5.72;;;;;;;5.57;100.00;101750.60;1702834;84;21571;-79
2022/02/24 09:16:27;;;;;;;5.12;4.50;;;;;;;5.61;96.04;101748.31;1733431;81;21100;-79
2022/02/24 09:18:55;;;;;;;8.88;4.97;;;;;;;5.63;100.00;101746.52;1716092;82;21159;-80
2022/02/24 09:21:22;;;;;;;6.08;5.10;;;;;;;5.69;100.00;101751.47;1712120;82;21039;-83
2022/02/24 09:23:50;;;;;;;6.80;5.53;;;;;;;5.72;98.95;101750.50;1713803;82;21065;-80
2022/02/24 09:26:17;;;;;;;9.03;5.03;;;;;;;5.76;100.00;101748.65;1718644;82;21005;-82
2022/02/24 09:28:46;;;;;;;9.68;5.20;;;;;;;5.82;93.33;101741.95;1714307;82;21104;-81
2022/02/24 09:31:13;;;;;;;8.88;5.90;;;;;;;5.90;96.00;101748.14;1718026;82;22048;-80
2022/02/24 09:33:41;;;;;;;15.08;6.25;;;;;;;6.02;100.00;101738.66;1715316;82;21546;-81
2022/02/24 09:36:09;;;;;;;10.28;5.72;;;;;;;6.12;100.00;101741.29;1712672;82;21040;-82
2022/02/24 09:38:36;;;;;;;10.08;5.10;;;;;;;6.26;100.00;101736.88;1711853;83;21052;-81
2022/02/24 09:41:06;;;;;;;7.40;4.37;;;;;;;6.30;79.01;101731.96;1714064;80;21539;-82
2022/02/24 09:43:36;;;;;;;11.57;5.78;;;;;;;6.30;76.72;101736.31;1717717;82;21173;-87
2022/02/24 09:46:10;;;;;;;8.08;5.85;;;;;;;6.29;79.62;101739.33;1704995;82;21622;-84
2022/02/24 09:48:45;;;;;;;10.00;5.72;;;;;;;6.27;77.68;101736.42;1692296;83;21073;-84
2022/02/24 09:51:16;;;;;;;14.40;6.30;;;;;;;6.24;73.06;101732.67;1713129;82;21053;-83
2022/02/24 09:53:46;;;;;;;15.43;5.72;;;;;;;6.21;77.22;101737.48;1688115;83;21369;-87
2022/02/24 09:56:20;;;;;;;9.18;5.47;;;;;;;6.22;84.45;101731.42;1717286;82;21843;-84
2022/02/24 09:58:50;;;;;;;11.03;5.65;;;;;;;6.22;74.99;101736.59;1719054;82;21116;-83
2022/02/24 10:01:19;;;;;;;10.03;6.00;;;;;;;6.24;72.13;101733.50;1718894;82;21566;-84
2022/02/24 10:03:50;;;;;;;11.38;5.22;;;;;;;6.25;68.21;101733.90;1690321;83;21060;-83
2022/02/24 10:06:17;;;;;;;9.30;5.95;;;;;;;6.29;74.43;101738.03;1676908;84;21058;-84
2022/02/24 10:08:48;;;;;;;9.25;5.17;;;;;;;6.36;72.49;101740.41;1696453;84;21552;-90
2022/02/24 10:11:28;;;;;;;10.53;6.15;;;;;;;6.37;72.03;101731.28;1695001;84;21042;-85
2022/02/24 10:14:07;;;;;;;8.63;5.15;;;;;;;6.40;78.06;101735.48;1690705;84;21079;-84
2022/02/24 10:17:02;;;;;;;10.00;5.72;;;;;;;6.46;83.06;101731.36;1661198;80;21082;-82
2022/02/24 10:19:46;;;;;;;9.05;5.80;;;;;;;6.47;71.03;101740.38;1622149;87;21114;-80
2022/02/24 10:22:29;;;;;;;6.40;5.35;;;;;;;6.38;68.09;101740.73;1628343;87;21161;-83
2022/02/24 10:25:08;;;;;;;7.10;5.62;;;;;;;6.36;65.37;101739.11;1625134;87;21106;-83
2022/02/24 10:27:42;;;;;;;7.97;5.87;;;;;;;6.38;81.20;101738.58;1616148;88;21035;-81
2022/02/24 10:30:18;;;;;;;6.45;5.58;;;;;;;6.45;79.18;101738.29;1658107;85;21605;-84
2022/02/24 10:32:52;;;;;;;7.05;5.83;;;;;;;6.52;76.99;101735.02;1626402;86;21106;-82
2022/02/24 10:35:37;;;;;;;6.55;5.87;;;;;;;6.58;82.47;101727.00;1606830;87;21145;-82
2022/02/24 10:38:13;;;;;;;8.73;5.60;;;;;;;6.65;81.22;101721.09;1605982;87;21382;-81
2022/02/24 10:40:45;;;;;;;15.88;5.37;;;;;;;6.66;70.33;101723.25;1611988;86;21035;-81
2022/02/24 10:43:20;;;;;;;10.60;6.25;;;;;;;6.66;77.38;101716.78;1631413;86;21059;-82
2022/02/24 10:46:14;;;;;;;10.35;6.67;;;;;;;6.63;66.80;101714.70;1631731;86;21101;-84
2022/02/24 10:48:57;;;;;;;13.88;5.85;;;;;;;6.60;71.33;101717.44;1623585;86;21623;-81
2022/02/24 10:51:36;;;;;;;9.10;6.28;;;;;;;6.67;79.75;101713.29;1631037;86;21485;-82
2022/02/24 10:54:10;;;;;;;15.30;8.80;;;;;;;6.78;88.65;101712.38;1619251;86;21137;-82
2022/02/24 10:56:43;;;;;;;9.80;6.80;;;;;;;6.85;81.89;101710.38;1619635;86;21123;-81
2022/02/24 10:59:16;;;;;;;7.45;5.83;;;;;;;6.92;77.75;101707.48;1640565;87;21065;-85
2022/02/24 11:01:43;;;;;;;10.65;6.53;;;;;;;6.96;77.38;101705.61;1644802;87;21203;-81
2022/02/24 11:04:10;;;;;;;13.13;8.58;;;;;;;6.95;73.27;101703.92;1630662;88;21074;-83
2022/02/24 11:06:39;;;;;;;14.10;7.33;;;;;;;6.93;75.22;101705.26;1635945;87;21347;-84
2022/02/24 11:09:08;;;;;;;21.52;6.10;;;;;;;6.98;76.92;101708.13;1668645;86;21672;-83
2022/02/24 11:11:37;;;;;;;96.32;8.60;;;;;;;6.99;73.21;101709.81;1647827;87;21606;-82
2022/02/24 11:14:09;;;;;;;13.48;5.37;;;;;;;6.93;68.79;101710.91;1646558;87;21117;-85
2022/02/24 11:16:37;;;;;;;10.30;5.03;;;;;;;6.86;64.86;101703.84;1611723;86;21025;-82
2022/02/24 11:19:04;;;;;;;6.53;4.53;;;;;;;6.75;63.73;101699.11;1718127;83;21684;-82
2022/02/24 11:21:33;;;;;;;44.30;23.10;;;;;;;6.67;63.61;101696.47;1690544;82;21669;-81
2022/02/24 11:24:01;;;;;;;9.88;6.03;;;;;;;6.67;70.90;101696.00;1689473;84;21597;-85
2022/02/24 11:26:45;;;;;;;7.97;4.90;;;;;;;6.76;74.09;101697.38;1689424;84;21199;-84